sensor_id;sensor_type;location;lat;lon;timestamp;P1;durP1;ratioP1;P2;durP2;ratioP2
6529;SDS011;3298;42.688;23.366;2022-12-18T00:02:01;6.00;;;5.50;;
6529;SDS011;3298;42.688;23.366;2022-12-18T00:04:29;5.67;;;5.07;;
6529;SDS011;3298;42.688;23.366;2022-12-18T00:06:56;5.30;;;4.90;;
6529;SDS011;3298;42.688;23.366;2022-12-18T00:09:22;6.03;;;5.53;;
6529;SDS011;3298;42.688;23.366;2022-12-18T00:11:49;5.47;;;5.03;;
6529;SDS011;3298;42.688;23.366;2022-12-18T00:14:17;6.07;;;5.57;;
6529;SDS011;3298;42.688;23.366;2022-12-18T00:16:44;5.20;;;4.80;;
6529;SDS011;3298;42.688;23.366;2022-12-18T00:19:12;5.30;;;4.80;;
6529;SDS011;3298;42.688;23.366;2022-12-18T00:21:39;5.80;;;5.40;;
6529;SDS011;3298;42.688;23.366;2022-12-18T00:24:08;6.33;;;5.73;;
6529;SDS011;3298;42.688;23.366;2022-12-18T00:26:35;5.80;;;5.30;;
6529;SDS011;3298;42.688;23.366;2022-12-18T00:29:04;6.07;;;5.57;;
6529;SDS011;3298;42.688;23.366;2022-12-18T00:31:35;5.93;;;5.30;;
6529;SDS011;3298;42.688;23.366;2022-12-18T00:34:03;5.90;;;5.40;;
6529;SDS011;3298;42.688;23.366;2022-12-18T00:36:30;6.90;;;6.17;;
6529;SDS011;3298;42.688;23.366;2022-12-18T00:38:59;8.33;;;6.10;;
6529;SDS011;3298;42.688;23.366;2022-12-18T00:41:26;5.83;;;5.33;;
6529;SDS011;3298;42.688;23.366;2022-12-18T00:44:12;6.27;;;5.77;;
6529;SDS011;3298;42.688;23.366;2022-12-18T00:46:42;6.07;;;5.50;;
6529;SDS011;3298;42.688;23.366;2022-12-18T00:49:12;7.00;;;6.30;;
6529;SDS011;3298;42.688;23.366;2022-12-18T00:51:40;7.97;;;5.43;;
6529;SDS011;3298;42.688;23.366;2022-12-18T00:54:07;5.80;;;5.30;;
6529;SDS011;3298;42.688;23.366;2022-12-18T00:56:34;5.60;;;5.10;;
6529;SDS011;3298;42.688;23.366;2022-12-18T00:59:02;5.50;;;4.63;;
6529;SDS011;3298;42.688;23.366;2022-12-18T01:01:29;11.03;;;5.47;;
6529;SDS011;3298;42.688;23.366;2022-12-18T01:03:59;6.13;;;5.57;;
6529;SDS011;3298;42.688;23.366;2022-12-18T01:06:26;8.97;;;5.57;;
6529;SDS011;3298;42.688;23.366;2022-12-18T01:08:53;6.33;;;5.80;;
6529;SDS011;3298;42.688;23.366;2022-12-18T01:11:20;5.57;;;5.07;;
6529;SDS011;3298;42.688;23.366;2022-12-18T01:13:47;6.93;;;6.23;;
6529;SDS011;3298;42.688;23.366;2022-12-18T01:16:14;6.13;;;5.63;;
6529;SDS011;3298;42.688;23.366;2022-12-18T01:18:42;6.43;;;5.83;;
6529;SDS011;3298;42.688;23.366;2022-12-18T01:21:11;5.93;;;5.40;;
6529;SDS011;3298;42.688;23.366;2022-12-18T01:23:39;5.80;;;5.37;;
6529;SDS011;3298;42.688;23.366;2022-12-18T01:26:07;6.93;;;6.10;;
6529;SDS011;3298;42.688;23.366;2022-12-18T01:28:34;6.03;;;5.57;;
6529;SDS011;3298;42.688;23.366;2022-12-18T01:31:14;8.53;;;7.40;;
6529;SDS011;3298;42.688;23.366;2022-12-18T01:33:43;9.97;;;6.43;;
6529;SDS011;3298;42.688;23.366;2022-12-18T01:36:18;6.97;;;6.13;;
6529;SDS011;3298;42.688;23.366;2022-12-18T01:38:45;8.57;;;6.23;;
6529;SDS011;3298;42.688;23.366;2022-12-18T01:41:13;6.63;;;6.03;;
6529;SDS011;3298;42.688;23.366;2022-12-18T01:43:41;8.93;;;6.27;;
6529;SDS011;3298;42.688;23.366;2022-12-18T01:46:15;7.30;;;6.70;;
6529;SDS011;3298;42.688;23.366;2022-12-18T01:48:44;6.93;;;6.23;;
6529;SDS011;3298;42.688;23.366;2022-12-18T01:51:14;7.23;;;6.53;;
6529;SDS011;3298;42.688;23.366;2022-12-18T01:53:42;7.40;;;6.37;;
6529;SDS011;3298;42.688;23.366;2022-12-18T01:56:12;6.83;;;6.23;;
6529;SDS011;3298;42.688;23.366;2022-12-18T01:58:43;6.70;;;6.10;;
6529;SDS011;3298;42.688;23.366;2022-12-18T02:01:17;6.77;;;6.20;;
6529;SDS011;3298;42.688;23.366;2022-12-18T02:03:46;6.17;;;5.63;;
6529;SDS011;3298;42.688;23.366;2022-12-18T02:06:13;6.63;;;6.10;;
6529;SDS011;3298;42.688;23.366;2022-12-18T02:11:32;7.33;;;5.77;;
6529;SDS011;3298;42.688;23.366;2022-12-18T02:14:11;7.80;;;6.53;;
6529;SDS011;3298;42.688;23.366;2022-12-18T02:16:45;6.47;;;5.97;;
6529;SDS011;3298;42.688;23.366;2022-12-18T02:19:23;6.43;;;5.80;;
6529;SDS011;3298;42.688;23.366;2022-12-18T02:22:07;5.97;;;5.53;;
6529;SDS011;3298;42.688;23.366;2022-12-18T02:24:57;6.67;;;5.03;;
6529;SDS011;3298;42.688;23.366;2022-12-18T02:27:33;6.53;;;5.87;;
6529;SDS011;3298;42.688;23.366;2022-12-18T02:30:01;7.27;;;5.80;;
6529;SDS011;3298;42.688;23.366;2022-12-18T02:32:31;5.97;;;5.30;;
6529;SDS011;3298;42.688;23.366;2022-12-18T02:35:03;5.60;;;5.10;;
6529;SDS011;3298;42.688;23.366;2022-12-18T02:37:32;5.60;;;5.20;;
6529;SDS011;3298;42.688;23.366;2022-12-18T02:40:01;5.43;;;5.03;;
6529;SDS011;3298;42.688;23.366;2022-12-18T02:42:30;5.83;;;5.17;;
6529;SDS011;3298;42.688;23.366;2022-12-18T02:44:59;6.47;;;5.87;;
6529;SDS011;3298;42.688;23.366;2022-12-18T02:47:27;5.87;;;5.30;;
6529;SDS011;3298;42.688;23.366;2022-12-18T02:49:58;6.63;;;6.03;;
6529;SDS011;3298;42.688;23.366;2022-12-18T02:52:35;5.73;;;5.33;;
6529;SDS011;3298;42.688;23.366;2022-12-18T02:55:13;6.33;;;5.80;;
6529;SDS011;3298;42.688;23.366;2022-12-18T02:57:50;6.03;;;5.43;;
6529;SDS011;3298;42.688;23.366;2022-12-18T03:00:22;5.73;;;5.20;;
6529;SDS011;3298;42.688;23.366;2022-12-18T03:02:51;7.53;;;5.90;;
6529;SDS011;3298;42.688;23.366;2022-12-18T03:05:27;6.23;;;5.50;;
6529;SDS011;3298;42.688;23.366;2022-12-18T03:07:59;6.37;;;5.57;;
6529;SDS011;3298;42.688;23.366;2022-12-18T03:10:30;7.33;;;5.73;;
6529;SDS011;3298;42.688;23.366;2022-12-18T03:13:02;6.07;;;5.57;;
6529;SDS011;3298;42.688;23.366;2022-12-18T03:15:35;7.20;;;6.50;;
6529;SDS011;3298;42.688;23.366;2022-12-18T03:18:06;5.93;;;5.33;;
6529;SDS011;3298;42.688;23.366;2022-12-18T03:20:35;5.83;;;5.27;;
6529;SDS011;3298;42.688;23.366;2022-12-18T03:23:06;5.87;;;5.43;;
6529;SDS011;3298;42.688;23.366;2022-12-18T03:25:36;5.87;;;5.40;;
6529;SDS011;3298;42.688;23.366;2022-12-18T03:28:07;6.03;;;5.40;;
6529;SDS011;3298;42.688;23.366;2022-12-18T03:30:40;6.23;;;5.63;;
6529;SDS011;3298;42.688;23.366;2022-12-18T03:33:10;6.50;;;5.90;;
6529;SDS011;3298;42.688;23.366;2022-12-18T03:35:42;5.77;;;5.20;;
6529;SDS011;3298;42.688;23.366;2022-12-18T03:38:10;9.60;;;5.80;;
6529;SDS011;3298;42.688;23.366;2022-12-18T03:40:40;9.30;;;6.50;;
6529;SDS011;3298;42.688;23.366;2022-12-18T03:43:18;5.87;;;5.40;;
6529;SDS011;3298;42.688;23.366;2022-12-18T03:45:53;5.73;;;5.23;;
6529;SDS011;3298;42.688;23.366;2022-12-18T03:48:27;7.33;;;5.33;;
6529;SDS011;3298;42.688;23.366;2022-12-18T03:51:01;7.20;;;6.07;;
6529;SDS011;3298;42.688;23.366;2022-12-18T03:53:33;6.40;;;5.83;;
6529;SDS011;3298;42.688;23.366;2022-12-18T03:56:06;5.27;;;4.80;;
6529;SDS011;3298;42.688;23.366;2022-12-18T03:58:35;7.03;;;6.33;;
6529;SDS011;3298;42.688;23.366;2022-12-18T04:01:05;6.40;;;5.80;;
6529;SDS011;3298;42.688;23.366;2022-12-18T04:03:34;7.47;;;6.77;;
6529;SDS011;3298;42.688;23.366;2022-12-18T04:06:02;7.07;;;6.37;;
6529;SDS011;3298;42.688;23.366;2022-12-18T04:08:30;5.70;;;5.30;;
6529;SDS011;3298;42.688;23.366;2022-12-18T04:10:57;7.97;;;6.20;;
6529;SDS011;3298;42.688;23.366;2022-12-18T04:13:24;8.47;;;6.27;;
6529;SDS011;3298;42.688;23.366;2022-12-18T04:15:54;6.63;;;5.93;;
6529;SDS011;3298;42.688;23.366;2022-12-18T04:18:22;6.63;;;6.03;;
6529;SDS011;3298;42.688;23.366;2022-12-18T04:20:49;9.57;;;6.37;;
6529;SDS011;3298;42.688;23.366;2022-12-18T04:23:15;6.90;;;6.30;;
6529;SDS011;3298;42.688;23.366;2022-12-18T04:25:42;7.60;;;6.90;;
6529;SDS011;3298;42.688;23.366;2022-12-18T04:28:09;8.50;;;6.53;;
6529;SDS011;3298;42.688;23.366;2022-12-18T04:30:36;8.43;;;6.80;;
6529;SDS011;3298;42.688;23.366;2022-12-18T04:33:03;8.63;;;6.57;;
6529;SDS011;3298;42.688;23.366;2022-12-18T04:35:31;7.53;;;6.63;;
6529;SDS011;3298;42.688;23.366;2022-12-18T04:37:58;9.43;;;7.60;;
6529;SDS011;3298;42.688;23.366;2022-12-18T04:40:24;8.80;;;7.60;;
6529;SDS011;3298;42.688;23.366;2022-12-18T04:42:51;11.10;;;7.83;;
6529;SDS011;3298;42.688;23.366;2022-12-18T04:45:18;10.03;;;8.00;;
6529;SDS011;3298;42.688;23.366;2022-12-18T04:47:45;9.37;;;7.67;;
6529;SDS011;3298;42.688;23.366;2022-12-18T04:50:11;8.30;;;7.50;;
6529;SDS011;3298;42.688;23.366;2022-12-18T04:52:40;9.37;;;7.43;;
6529;SDS011;3298;42.688;23.366;2022-12-18T04:55:07;9.13;;;7.43;;
6529;SDS011;3298;42.688;23.366;2022-12-18T04:57:33;8.33;;;7.53;;
6529;SDS011;3298;42.688;23.366;2022-12-18T05:00:00;7.93;;;7.27;;
6529;SDS011;3298;42.688;23.366;2022-12-18T05:02:27;11.77;;;8.03;;
6529;SDS011;3298;42.688;23.366;2022-12-18T05:04:54;8.50;;;7.50;;
6529;SDS011;3298;42.688;23.366;2022-12-18T05:07:21;9.83;;;7.90;;
6529;SDS011;3298;42.688;23.366;2022-12-18T05:09:49;9.10;;;8.03;;
6529;SDS011;3298;42.688;23.366;2022-12-18T05:12:15;10.57;;;8.07;;
6529;SDS011;3298;42.688;23.366;2022-12-18T05:14:42;12.20;;;9.00;;
6529;SDS011;3298;42.688;23.366;2022-12-18T05:17:09;12.03;;;9.00;;
6529;SDS011;3298;42.688;23.366;2022-12-18T05:19:36;13.27;;;8.83;;
6529;SDS011;3298;42.688;23.366;2022-12-18T05:22:03;10.30;;;8.27;;
6529;SDS011;3298;42.688;23.366;2022-12-18T05:24:29;13.13;;;9.90;;
6529;SDS011;3298;42.688;23.366;2022-12-18T05:26:57;19.00;;;10.13;;
6529;SDS011;3298;42.688;23.366;2022-12-18T05:29:24;12.40;;;9.17;;
6529;SDS011;3298;42.688;23.366;2022-12-18T05:31:51;13.53;;;9.77;;
6529;SDS011;3298;42.688;23.366;2022-12-18T05:34:18;13.40;;;9.10;;
6529;SDS011;3298;42.688;23.366;2022-12-18T05:36:45;10.73;;;8.57;;
6529;SDS011;3298;42.688;23.366;2022-12-18T05:39:11;12.43;;;10.10;;
6529;SDS011;3298;42.688;23.366;2022-12-18T05:41:38;12.17;;;9.20;;
6529;SDS011;3298;42.688;23.366;2022-12-18T05:44:06;13.00;;;9.43;;
6529;SDS011;3298;42.688;23.366;2022-12-18T05:46:33;12.47;;;8.43;;
6529;SDS011;3298;42.688;23.366;2022-12-18T05:49:01;15.63;;;9.43;;
6529;SDS011;3298;42.688;23.366;2022-12-18T05:51:28;12.23;;;8.63;;
6529;SDS011;3298;42.688;23.366;2022-12-18T05:53:55;13.70;;;10.43;;
6529;SDS011;3298;42.688;23.366;2022-12-18T05:56:22;13.63;;;9.37;;
6529;SDS011;3298;42.688;23.366;2022-12-18T05:58:50;13.23;;;10.27;;
6529;SDS011;3298;42.688;23.366;2022-12-18T06:01:20;11.80;;;9.13;;
6529;SDS011;3298;42.688;23.366;2022-12-18T06:03:48;10.33;;;9.03;;
6529;SDS011;3298;42.688;23.366;2022-12-18T06:06:15;10.50;;;9.23;;
6529;SDS011;3298;42.688;23.366;2022-12-18T06:08:44;11.50;;;9.60;;
6529;SDS011;3298;42.688;23.366;2022-12-18T06:11:11;15.03;;;10.30;;
6529;SDS011;3298;42.688;23.366;2022-12-18T06:13:38;12.13;;;8.73;;
6529;SDS011;3298;42.688;23.366;2022-12-18T06:16:05;13.40;;;8.97;;
6529;SDS011;3298;42.688;23.366;2022-12-18T06:18:36;12.80;;;9.53;;
6529;SDS011;3298;42.688;23.366;2022-12-18T06:21:03;12.10;;;8.67;;
6529;SDS011;3298;42.688;23.366;2022-12-18T06:23:30;14.67;;;9.13;;
6529;SDS011;3298;42.688;23.366;2022-12-18T06:25:57;13.07;;;9.47;;
6529;SDS011;3298;42.688;23.366;2022-12-18T06:28:24;14.77;;;9.73;;
6529;SDS011;3298;42.688;23.366;2022-12-18T06:30:51;14.73;;;10.33;;
6529;SDS011;3298;42.688;23.366;2022-12-18T06:33:18;14.30;;;9.37;;
6529;SDS011;3298;42.688;23.366;2022-12-18T06:35:46;14.57;;;10.00;;
6529;SDS011;3298;42.688;23.366;2022-12-18T06:38:13;10.40;;;6.83;;
6529;SDS011;3298;42.688;23.366;2022-12-18T06:40:39;15.13;;;9.57;;
6529;SDS011;3298;42.688;23.366;2022-12-18T06:43:06;14.57;;;9.40;;
6529;SDS011;3298;42.688;23.366;2022-12-18T06:45:33;10.37;;;7.93;;
6529;SDS011;3298;42.688;23.366;2022-12-18T06:48:00;14.13;;;10.00;;
6529;SDS011;3298;42.688;23.366;2022-12-18T06:50:27;13.80;;;9.67;;
6529;SDS011;3298;42.688;23.366;2022-12-18T06:52:55;12.47;;;9.97;;
6529;SDS011;3298;42.688;23.366;2022-12-18T06:55:22;10.40;;;8.63;;
6529;SDS011;3298;42.688;23.366;2022-12-18T06:57:49;11.67;;;9.50;;
6529;SDS011;3298;42.688;23.366;2022-12-18T07:00:16;11.30;;;8.27;;
6529;SDS011;3298;42.688;23.366;2022-12-18T07:02:43;13.70;;;9.47;;
6529;SDS011;3298;42.688;23.366;2022-12-18T07:05:10;11.17;;;8.60;;
6529;SDS011;3298;42.688;23.366;2022-12-18T07:07:37;13.47;;;8.77;;
6529;SDS011;3298;42.688;23.366;2022-12-18T07:10:05;12.03;;;8.87;;
6529;SDS011;3298;42.688;23.366;2022-12-18T07:12:32;13.00;;;9.37;;
6529;SDS011;3298;42.688;23.366;2022-12-18T07:14:59;12.70;;;9.30;;
6529;SDS011;3298;42.688;23.366;2022-12-18T07:17:26;11.30;;;8.83;;
6529;SDS011;3298;42.688;23.366;2022-12-18T07:19:53;13.13;;;9.63;;
6529;SDS011;3298;42.688;23.366;2022-12-18T07:22:20;14.27;;;10.60;;
6529;SDS011;3298;42.688;23.366;2022-12-18T07:24:47;13.60;;;9.07;;
6529;SDS011;3298;42.688;23.366;2022-12-18T07:27:16;12.87;;;9.23;;
6529;SDS011;3298;42.688;23.366;2022-12-18T07:29:42;14.33;;;10.57;;
6529;SDS011;3298;42.688;23.366;2022-12-18T07:32:09;12.90;;;10.20;;
6529;SDS011;3298;42.688;23.366;2022-12-18T07:34:36;14.17;;;10.93;;
6529;SDS011;3298;42.688;23.366;2022-12-18T07:37:03;16.53;;;10.97;;
6529;SDS011;3298;42.688;23.366;2022-12-18T07:39:30;20.03;;;11.53;;
6529;SDS011;3298;42.688;23.366;2022-12-18T07:41:57;16.40;;;10.13;;
6529;SDS011;3298;42.688;23.366;2022-12-18T07:44:43;26.13;;;12.23;;
6529;SDS011;3298;42.688;23.366;2022-12-18T07:47:09;15.30;;;10.90;;
6529;SDS011;3298;42.688;23.366;2022-12-18T07:49:36;17.70;;;11.30;;
6529;SDS011;3298;42.688;23.366;2022-12-18T07:52:03;16.13;;;12.13;;
6529;SDS011;3298;42.688;23.366;2022-12-18T07:54:30;16.80;;;11.43;;
6529;SDS011;3298;42.688;23.366;2022-12-18T07:56:57;15.47;;;11.53;;
6529;SDS011;3298;42.688;23.366;2022-12-18T07:59:24;13.63;;;10.53;;
6529;SDS011;3298;42.688;23.366;2022-12-18T08:01:52;15.70;;;11.47;;
6529;SDS011;3298;42.688;23.366;2022-12-18T08:04:19;17.13;;;11.10;;
6529;SDS011;3298;42.688;23.366;2022-12-18T08:06:45;16.53;;;12.43;;
6529;SDS011;3298;42.688;23.366;2022-12-18T08:09:12;25.97;;;14.33;;
6529;SDS011;3298;42.688;23.366;2022-12-18T08:11:39;15.17;;;11.57;;
6529;SDS011;3298;42.688;23.366;2022-12-18T08:14:06;14.80;;;10.57;;
6529;SDS011;3298;42.688;23.366;2022-12-18T08:16:33;20.77;;;11.93;;
6529;SDS011;3298;42.688;23.366;2022-12-18T08:19:01;22.57;;;13.83;;
6529;SDS011;3298;42.688;23.366;2022-12-18T08:21:29;22.43;;;13.70;;
6529;SDS011;3298;42.688;23.366;2022-12-18T08:23:57;17.30;;;12.30;;
6529;SDS011;3298;42.688;23.366;2022-12-18T08:26:26;17.60;;;11.87;;
6529;SDS011;3298;42.688;23.366;2022-12-18T08:28:54;20.40;;;12.83;;
6529;SDS011;3298;42.688;23.366;2022-12-18T08:31:21;17.60;;;10.30;;
6529;SDS011;3298;42.688;23.366;2022-12-18T08:33:48;21.60;;;12.97;;
6529;SDS011;3298;42.688;23.366;2022-12-18T08:36:18;20.57;;;12.73;;
6529;SDS011;3298;42.688;23.366;2022-12-18T08:38:44;17.93;;;12.20;;
6529;SDS011;3298;42.688;23.366;2022-12-18T08:41:12;18.33;;;11.43;;
6529;SDS011;3298;42.688;23.366;2022-12-18T08:43:41;18.63;;;10.83;;
6529;SDS011;3298;42.688;23.366;2022-12-18T08:46:25;17.30;;;10.67;;
6529;SDS011;3298;42.688;23.366;2022-12-18T08:48:53;17.53;;;12.10;;
6529;SDS011;3298;42.688;23.366;2022-12-18T08:51:22;13.70;;;11.00;;
6529;SDS011;3298;42.688;23.366;2022-12-18T08:53:49;16.20;;;10.60;;
6529;SDS011;3298;42.688;23.366;2022-12-18T08:56:16;17.50;;;11.00;;
6529;SDS011;3298;42.688;23.366;2022-12-18T08:58:43;18.97;;;11.57;;
6529;SDS011;3298;42.688;23.366;2022-12-18T09:01:10;15.90;;;11.17;;
6529;SDS011;3298;42.688;23.366;2022-12-18T09:03:38;14.67;;;9.47;;
6529;SDS011;3298;42.688;23.366;2022-12-18T09:06:06;13.83;;;10.23;;
6529;SDS011;3298;42.688;23.366;2022-12-18T09:08:35;16.20;;;10.93;;
6529;SDS011;3298;42.688;23.366;2022-12-18T09:11:02;16.17;;;9.83;;
6529;SDS011;3298;42.688;23.366;2022-12-18T09:13:29;14.10;;;10.03;;
6529;SDS011;3298;42.688;23.366;2022-12-18T09:15:56;13.67;;;10.67;;
6529;SDS011;3298;42.688;23.366;2022-12-18T09:18:23;14.90;;;10.10;;
6529;SDS011;3298;42.688;23.366;2022-12-18T09:20:50;18.77;;;9.47;;
6529;SDS011;3298;42.688;23.366;2022-12-18T09:23:18;14.20;;;10.77;;
6529;SDS011;3298;42.688;23.366;2022-12-18T09:25:46;15.27;;;10.37;;
6529;SDS011;3298;42.688;23.366;2022-12-18T09:28:13;18.93;;;9.57;;
6529;SDS011;3298;42.688;23.366;2022-12-18T09:30:43;14.73;;;9.83;;
6529;SDS011;3298;42.688;23.366;2022-12-18T09:33:11;14.73;;;10.73;;
6529;SDS011;3298;42.688;23.366;2022-12-18T09:35:39;15.07;;;10.00;;
6529;SDS011;3298;42.688;23.366;2022-12-18T09:38:07;27.17;;;11.50;;
6529;SDS011;3298;42.688;23.366;2022-12-18T09:40:39;16.23;;;8.57;;
6529;SDS011;3298;42.688;23.366;2022-12-18T09:43:16;14.80;;;9.83;;
6529;SDS011;3298;42.688;23.366;2022-12-18T09:45:46;12.43;;;9.37;;
6529;SDS011;3298;42.688;23.366;2022-12-18T09:48:19;14.03;;;10.07;;
6529;SDS011;3298;42.688;23.366;2022-12-18T09:50:49;11.97;;;8.80;;
6529;SDS011;3298;42.688;23.366;2022-12-18T09:53:19;16.27;;;10.33;;
6529;SDS011;3298;42.688;23.366;2022-12-18T09:55:48;20.63;;;10.80;;
6529;SDS011;3298;42.688;23.366;2022-12-18T09:58:20;14.27;;;10.20;;
6529;SDS011;3298;42.688;23.366;2022-12-18T10:00:54;17.13;;;9.37;;
6529;SDS011;3298;42.688;23.366;2022-12-18T10:03:21;14.40;;;9.47;;
6529;SDS011;3298;42.688;23.366;2022-12-18T10:05:51;12.17;;;9.13;;
6529;SDS011;3298;42.688;23.366;2022-12-18T10:08:29;17.10;;;9.80;;
6529;SDS011;3298;42.688;23.366;2022-12-18T10:11:03;15.90;;;10.17;;
6529;SDS011;3298;42.688;23.366;2022-12-18T10:13:49;12.97;;;10.33;;
6529;SDS011;3298;42.688;23.366;2022-12-18T10:16:23;14.93;;;10.13;;
6529;SDS011;3298;42.688;23.366;2022-12-18T10:19:02;14.37;;;10.80;;
6529;SDS011;3298;42.688;23.366;2022-12-18T10:21:47;17.57;;;10.67;;
6529;SDS011;3298;42.688;23.366;2022-12-18T10:24:22;18.60;;;10.67;;
6529;SDS011;3298;42.688;23.366;2022-12-18T10:26:54;13.67;;;9.40;;
6529;SDS011;3298;42.688;23.366;2022-12-18T10:29:28;16.17;;;9.97;;
6529;SDS011;3298;42.688;23.366;2022-12-18T10:31:55;13.10;;;9.63;;
6529;SDS011;3298;42.688;23.366;2022-12-18T10:34:21;11.23;;;7.97;;
6529;SDS011;3298;42.688;23.366;2022-12-18T10:36:49;12.77;;;9.07;;
6529;SDS011;3298;42.688;23.366;2022-12-18T10:39:17;16.57;;;9.57;;
6529;SDS011;3298;42.688;23.366;2022-12-18T10:41:45;15.03;;;9.53;;
6529;SDS011;3298;42.688;23.366;2022-12-18T10:44:16;16.27;;;8.93;;
6529;SDS011;3298;42.688;23.366;2022-12-18T10:46:46;18.27;;;10.80;;
6529;SDS011;3298;42.688;23.366;2022-12-18T10:49:19;12.70;;;9.63;;
6529;SDS011;3298;42.688;23.366;2022-12-18T10:51:48;21.17;;;11.03;;
6529;SDS011;3298;42.688;23.366;2022-12-18T10:54:16;16.70;;;10.73;;
6529;SDS011;3298;42.688;23.366;2022-12-18T10:56:45;17.87;;;10.83;;
6529;SDS011;3298;42.688;23.366;2022-12-18T10:59:15;24.17;;;11.13;;
6529;SDS011;3298;42.688;23.366;2022-12-18T11:01:48;19.27;;;11.83;;
6529;SDS011;3298;42.688;23.366;2022-12-18T11:04:17;16.53;;;10.40;;
6529;SDS011;3298;42.688;23.366;2022-12-18T11:06:54;18.07;;;9.97;;
6529;SDS011;3298;42.688;23.366;2022-12-18T11:09:23;19.23;;;11.33;;
6529;SDS011;3298;42.688;23.366;2022-12-18T11:11:51;14.80;;;10.07;;
6529;SDS011;3298;42.688;23.366;2022-12-18T11:14:21;15.37;;;9.80;;
6529;SDS011;3298;42.688;23.366;2022-12-18T11:16:52;15.20;;;10.67;;
6529;SDS011;3298;42.688;23.366;2022-12-18T11:19:21;15.87;;;8.80;;
6529;SDS011;3298;42.688;23.366;2022-12-18T11:21:52;12.60;;;9.40;;
6529;SDS011;3298;42.688;23.366;2022-12-18T11:24:20;13.93;;;9.33;;
6529;SDS011;3298;42.688;23.366;2022-12-18T11:26:51;16.33;;;10.37;;
6529;SDS011;3298;42.688;23.366;2022-12-18T11:29:20;16.20;;;10.17;;
6529;SDS011;3298;42.688;23.366;2022-12-18T11:31:56;17.03;;;11.40;;
6529;SDS011;3298;42.688;23.366;2022-12-18T11:34:51;17.03;;;9.63;;
6529;SDS011;3298;42.688;23.366;2022-12-18T11:37:24;17.83;;;10.87;;
6529;SDS011;3298;42.688;23.366;2022-12-18T11:39:52;18.37;;;11.60;;
6529;SDS011;3298;42.688;23.366;2022-12-18T11:42:23;19.90;;;12.07;;
6529;SDS011;3298;42.688;23.366;2022-12-18T11:44:55;18.57;;;11.13;;
6529;SDS011;3298;42.688;23.366;2022-12-18T11:47:29;17.40;;;11.30;;
6529;SDS011;3298;42.688;23.366;2022-12-18T11:50:05;17.13;;;10.27;;
6529;SDS011;3298;42.688;23.366;2022-12-18T11:52:40;18.53;;;11.37;;
6529;SDS011;3298;42.688;23.366;2022-12-18T11:55:10;14.27;;;10.47;;
6529;SDS011;3298;42.688;23.366;2022-12-18T11:57:41;18.27;;;10.07;;
6529;SDS011;3298;42.688;23.366;2022-12-18T12:00:18;15.50;;;9.80;;
6529;SDS011;3298;42.688;23.366;2022-12-18T12:03:04;13.43;;;9.67;;
6529;SDS011;3298;42.688;23.366;2022-12-18T12:05:43;14.40;;;9.13;;
6529;SDS011;3298;42.688;23.366;2022-12-18T12:08:18;11.57;;;8.73;;
6529;SDS011;3298;42.688;23.366;2022-12-18T12:10:56;15.53;;;9.70;;
6529;SDS011;3298;42.688;23.366;2022-12-18T12:13:36;18.43;;;10.00;;
6529;SDS011;3298;42.688;23.366;2022-12-18T12:16:15;19.00;;;11.37;;
6529;SDS011;3298;42.688;23.366;2022-12-18T12:18:56;21.30;;;11.73;;
6529;SDS011;3298;42.688;23.366;2022-12-18T12:21:35;29.03;;;16.00;;
6529;SDS011;3298;42.688;23.366;2022-12-18T12:24:12;14.57;;;9.67;;
6529;SDS011;3298;42.688;23.366;2022-12-18T12:26:52;17.30;;;10.50;;
6529;SDS011;3298;42.688;23.366;2022-12-18T12:29:30;19.13;;;11.90;;
6529;SDS011;3298;42.688;23.366;2022-12-18T12:32:12;15.43;;;10.00;;
6529;SDS011;3298;42.688;23.366;2022-12-18T12:34:52;15.57;;;10.67;;
6529;SDS011;3298;42.688;23.366;2022-12-18T12:37:33;17.73;;;10.07;;
6529;SDS011;3298;42.688;23.366;2022-12-18T12:40:12;15.43;;;10.50;;
6529;SDS011;3298;42.688;23.366;2022-12-18T12:42:44;21.23;;;10.77;;
6529;SDS011;3298;42.688;23.366;2022-12-18T12:45:34;17.33;;;10.10;;
6529;SDS011;3298;42.688;23.366;2022-12-18T12:48:04;14.47;;;10.07;;
6529;SDS011;3298;42.688;23.366;2022-12-18T12:50:34;19.13;;;10.10;;
6529;SDS011;3298;42.688;23.366;2022-12-18T12:53:05;17.03;;;8.47;;
6529;SDS011;3298;42.688;23.366;2022-12-18T12:55:35;15.10;;;10.87;;
6529;SDS011;3298;42.688;23.366;2022-12-18T12:58:14;15.93;;;10.10;;
6529;SDS011;3298;42.688;23.366;2022-12-18T13:00:52;16.13;;;10.30;;
6529;SDS011;3298;42.688;23.366;2022-12-18T13:03:28;13.10;;;9.57;;
6529;SDS011;3298;42.688;23.366;2022-12-18T13:06:10;17.07;;;10.33;;
6529;SDS011;3298;42.688;23.366;2022-12-18T13:08:53;17.70;;;10.87;;
6529;SDS011;3298;42.688;23.366;2022-12-18T13:11:30;17.90;;;10.77;;
6529;SDS011;3298;42.688;23.366;2022-12-18T13:14:26;16.23;;;10.13;;
6529;SDS011;3298;42.688;23.366;2022-12-18T13:17:14;16.70;;;9.63;;
6529;SDS011;3298;42.688;23.366;2022-12-18T13:20:03;15.53;;;9.90;;
6529;SDS011;3298;42.688;23.366;2022-12-18T13:22:37;12.60;;;9.70;;
6529;SDS011;3298;42.688;23.366;2022-12-18T13:25:27;15.67;;;10.67;;
6529;SDS011;3298;42.688;23.366;2022-12-18T13:28:03;18.03;;;10.70;;
6529;SDS011;3298;42.688;23.366;2022-12-18T13:30:50;14.90;;;10.37;;
6529;SDS011;3298;42.688;23.366;2022-12-18T13:39:20;16.17;;;9.60;;
6529;SDS011;3298;42.688;23.366;2022-12-18T13:41:49;15.87;;;10.57;;
6529;SDS011;3298;42.688;23.366;2022-12-18T13:44:24;16.03;;;10.50;;
6529;SDS011;3298;42.688;23.366;2022-12-18T13:46:54;15.90;;;10.10;;
6529;SDS011;3298;42.688;23.366;2022-12-18T13:49:22;19.07;;;12.13;;
6529;SDS011;3298;42.688;23.366;2022-12-18T13:51:52;21.93;;;13.30;;
6529;SDS011;3298;42.688;23.366;2022-12-18T13:54:24;17.57;;;12.47;;
6529;SDS011;3298;42.688;23.366;2022-12-18T13:56:56;17.83;;;11.93;;
6529;SDS011;3298;42.688;23.366;2022-12-18T13:59:23;12.57;;;9.33;;
6529;SDS011;3298;42.688;23.366;2022-12-18T14:01:52;14.17;;;10.23;;
6529;SDS011;3298;42.688;23.366;2022-12-18T14:04:24;19.07;;;11.23;;
6529;SDS011;3298;42.688;23.366;2022-12-18T14:06:53;19.10;;;12.90;;
6529;SDS011;3298;42.688;23.366;2022-12-18T14:09:26;14.17;;;9.63;;
6529;SDS011;3298;42.688;23.366;2022-12-18T14:11:56;15.17;;;8.77;;
6529;SDS011;3298;42.688;23.366;2022-12-18T14:14:37;9.60;;;7.80;;
6529;SDS011;3298;42.688;23.366;2022-12-18T14:17:08;14.00;;;9.57;;
6529;SDS011;3298;42.688;23.366;2022-12-18T14:19:36;12.80;;;8.87;;
6529;SDS011;3298;42.688;23.366;2022-12-18T14:22:10;15.90;;;10.43;;
6529;SDS011;3298;42.688;23.366;2022-12-18T14:24:42;14.87;;;9.87;;
6529;SDS011;3298;42.688;23.366;2022-12-18T14:27:13;14.33;;;9.93;;
6529;SDS011;3298;42.688;23.366;2022-12-18T14:29:47;13.10;;;9.53;;
6529;SDS011;3298;42.688;23.366;2022-12-18T14:32:15;19.23;;;10.73;;
6529;SDS011;3298;42.688;23.366;2022-12-18T14:34:43;15.73;;;10.00;;
6529;SDS011;3298;42.688;23.366;2022-12-18T14:37:11;17.27;;;9.73;;
6529;SDS011;3298;42.688;23.366;2022-12-18T14:39:40;17.00;;;10.43;;
6529;SDS011;3298;42.688;23.366;2022-12-18T14:42:19;25.53;;;12.43;;
6529;SDS011;3298;42.688;23.366;2022-12-18T14:44:46;39.07;;;19.77;;
6529;SDS011;3298;42.688;23.366;2022-12-18T14:47:13;23.47;;;12.00;;
6529;SDS011;3298;42.688;23.366;2022-12-18T14:49:41;16.20;;;10.33;;
6529;SDS011;3298;42.688;23.366;2022-12-18T14:52:13;24.73;;;16.03;;
6529;SDS011;3298;42.688;23.366;2022-12-18T14:54:47;16.90;;;9.73;;
6529;SDS011;3298;42.688;23.366;2022-12-18T14:57:17;10.77;;;8.70;;
6529;SDS011;3298;42.688;23.366;2022-12-18T14:59:49;18.13;;;11.37;;
6529;SDS011;3298;42.688;23.366;2022-12-18T15:02:18;19.23;;;12.90;;
6529;SDS011;3298;42.688;23.366;2022-12-18T15:04:59;17.67;;;11.10;;
6529;SDS011;3298;42.688;23.366;2022-12-18T15:07:26;20.27;;;12.43;;
6529;SDS011;3298;42.688;23.366;2022-12-18T15:10:01;13.30;;;9.63;;
6529;SDS011;3298;42.688;23.366;2022-12-18T15:12:34;14.00;;;9.50;;
6529;SDS011;3298;42.688;23.366;2022-12-18T15:15:04;16.23;;;10.00;;
6529;SDS011;3298;42.688;23.366;2022-12-18T15:17:31;12.30;;;9.50;;